sensor_id;sensor_type;location;lat;lon;timestamp;pressure;altitude;pressure_sealevel;temperature;humidity
21988;BME280;11158;53.404;-1.510;2023-05-16T00:02:07;101323.72;;;13.93;47.03
21988;BME280;11158;53.404;-1.510;2023-05-16T00:04:52;101324.63;;;13.86;46.96
21988;BME280;11158;53.404;-1.510;2023-05-16T00:07:37;101318.44;;;14.15;46.67
21988;BME280;11158;53.404;-1.510;2023-05-16T00:10:21;101318.72;;;13.90;46.87
21988;BME280;11158;53.404;-1.510;2023-05-16T00:13:06;101309.66;;;14.21;46.37
21988;BME280;11158;53.404;-1.510;2023-05-16T00:15:51;101312.22;;;13.99;46.93
21988;BME280;11158;53.404;-1.510;2023-05-16T00:18:36;101319.19;;;14.09;46.82
21988;BME280;11158;53.404;-1.510;2023-05-16T00:21:20;101319.75;;;14.19;46.61
21988;BME280;11158;53.404;-1.510;2023-05-16T00:24:05;101316.41;;;14.17;46.50
21988;BME280;11158;53.404;-1.510;2023-05-16T00:26:49;101318.28;;;14.16;46.61
21988;BME280;11158;53.404;-1.510;2023-05-16T00:29:34;101307.06;;;13.98;47.30
21988;BME280;11158;53.404;-1.510;2023-05-16T00:32:18;101319.47;;;14.29;46.51
21988;BME280;11158;53.404;-1.510;2023-05-16T00:35:02;101317.44;;;14.16;46.84
21988;BME280;11158;53.404;-1.510;2023-05-16T00:37:46;101314.09;;;14.43;46.26
21988;BME280;11158;53.404;-1.510;2023-05-16T00:40:31;101319.13;;;14.02;47.05
21988;BME280;11158;53.404;-1.510;2023-05-16T00:43:15;101320.34;;;13.76;47.87
21988;BME280;11158;53.404;-1.510;2023-05-16T00:45:59;101311.84;;;13.73;47.81
21988;BME280;11158;53.404;-1.510;2023-05-16T00:48:44;101306.91;;;13.61;48.61
21988;BME280;11158;53.404;-1.510;2023-05-16T00:51:28;101315.56;;;13.49;48.65
21988;BME280;11158;53.404;-1.510;2023-05-16T00:54:13;101312.69;;;13.35;48.81
21988;BME280;11158;53.404;-1.510;2023-05-16T00:56:58;101316.13;;;13.44;49.02
21988;BME280;11158;53.404;-1.510;2023-05-16T00:59:44;101311.28;;;13.92;47.52
21988;BME280;11158;53.404;-1.510;2023-05-16T01:02:29;101308.59;;;13.92;47.37
21988;BME280;11158;53.404;-1.510;2023-05-16T01:05:13;101312.28;;;13.76;47.65
21988;BME280;11158;53.404;-1.510;2023-05-16T01:07:58;101311.59;;;13.97;47.09
21988;BME280;11158;53.404;-1.510;2023-05-16T01:10:52;101303.72;;;13.96;46.96
21988;BME280;11158;53.404;-1.510;2023-05-16T01:13:53;101310.09;;;13.42;48.16
21988;BME280;11158;53.404;-1.510;2023-05-16T01:19:59;101300.84;;;13.97;47.09
21988;BME280;11158;53.404;-1.510;2023-05-16T01:25:57;101312.63;;;13.12;48.69
21988;BME280;11158;53.404;-1.510;2023-05-16T01:28:45;101315.13;;;12.91;49.67
21988;BME280;11158;53.404;-1.510;2023-05-16T01:31:30;101313.16;;;13.39;48.23
21988;BME280;11158;53.404;-1.510;2023-05-16T01:34:14;101303.50;;;13.30;48.57
21988;BME280;11158;53.404;-1.510;2023-05-16T01:37:15;101308.41;;;13.18;48.74
21988;BME280;11158;53.404;-1.510;2023-05-16T01:40:12;101307.34;;;13.50;48.11
21988;BME280;11158;53.404;-1.510;2023-05-16T01:43:04;101309.88;;;13.67;47.33
21988;BME280;11158;53.404;-1.510;2023-05-16T01:46:01;101304.06;;;13.63;47.70
21988;BME280;11158;53.404;-1.510;2023-05-16T01:49:01;101317.25;;;12.72;49.31
21988;BME280;11158;53.404;-1.510;2023-05-16T01:51:55;101315.13;;;12.28;51.35
21988;BME280;11158;53.404;-1.510;2023-05-16T01:54:44;101311.19;;;11.83;52.33
21988;BME280;11158;53.404;-1.510;2023-05-16T01:57:30;101319.56;;;11.80;52.96
21988;BME280;11158;53.404;-1.510;2023-05-16T02:00:16;101306.84;;;11.90;52.81
21988;BME280;11158;53.404;-1.510;2023-05-16T02:03:00;101302.03;;;12.33;51.66
21988;BME280;11158;53.404;-1.510;2023-05-16T02:05:44;101311.38;;;11.73;53.25
21988;BME280;11158;53.404;-1.510;2023-05-16T02:08:28;101297.47;;;11.78;53.38
21988;BME280;11158;53.404;-1.510;2023-05-16T02:11:13;101296.44;;;12.04;52.92
21988;BME280;11158;53.404;-1.510;2023-05-16T02:13:57;101299.28;;;11.86;53.19
21988;BME280;11158;53.404;-1.510;2023-05-16T02:16:41;101304.88;;;11.60;54.32
21988;BME280;11158;53.404;-1.510;2023-05-16T02:19:25;101300.84;;;11.31;55.11
21988;BME280;11158;53.404;-1.510;2023-05-16T02:22:10;101300.84;;;11.64;54.33
21988;BME280;11158;53.404;-1.510;2023-05-16T02:24:54;101292.94;;;11.87;53.60
21988;BME280;11158;53.404;-1.510;2023-05-16T02:27:39;101297.84;;;11.67;53.98
21988;BME280;11158;53.404;-1.510;2023-05-16T02:30:23;101299.94;;;12.04;53.08
21988;BME280;11158;53.404;-1.510;2023-05-16T02:33:10;101300.69;;;12.29;52.20
21988;BME280;11158;53.404;-1.510;2023-05-16T02:35:54;101303.75;;;12.18;52.40
21988;BME280;11158;53.404;-1.510;2023-05-16T02:38:39;101300.66;;;11.90;53.42
21988;BME280;11158;53.404;-1.510;2023-05-16T02:41:23;101301.38;;;11.35;54.19
21988;BME280;11158;53.404;-1.510;2023-05-16T02:44:07;101310.50;;;11.98;52.86
21988;BME280;11158;53.404;-1.510;2023-05-16T02:46:52;101305.81;;;12.00;52.78
21988;BME280;11158;53.404;-1.510;2023-05-16T02:49:36;101304.19;;;11.33;54.24
21988;BME280;11158;53.404;-1.510;2023-05-16T02:52:20;101302.19;;;11.27;54.87
21988;BME280;11158;53.404;-1.510;2023-05-16T02:55:05;101303.00;;;11.52;54.40
21988;BME280;11158;53.404;-1.510;2023-05-16T02:57:49;101300.88;;;11.23;55.46
21988;BME280;11158;53.404;-1.510;2023-05-16T03:00:33;101297.50;;;10.96;56.09
21988;BME280;11158;53.404;-1.510;2023-05-16T03:03:17;101298.50;;;11.61;54.10
21988;BME280;11158;53.404;-1.510;2023-05-16T03:06:02;101299.66;;;11.58;54.36
21988;BME280;11158;53.404;-1.510;2023-05-16T03:08:46;101303.88;;;11.36;55.20
21988;BME280;11158;53.404;-1.510;2023-05-16T03:11:30;101302.81;;;11.86;53.89
21988;BME280;11158;53.404;-1.510;2023-05-16T03:14:14;101308.56;;;12.31;52.36
21988;BME280;11158;53.404;-1.510;2023-05-16T03:16:58;101310.66;;;12.52;52.02
21988;BME280;11158;53.404;-1.510;2023-05-16T03:19:43;101310.53;;;12.45;51.68
21988;BME280;11158;53.404;-1.510;2023-05-16T03:22:27;101311.19;;;12.78;50.97
21988;BME280;11158;53.404;-1.510;2023-05-16T03:25:11;101308.72;;;13.00;50.80
21988;BME280;11158;53.404;-1.510;2023-05-16T03:27:54;101319.25;;;12.78;50.56
21988;BME280;11158;53.404;-1.510;2023-05-16T03:30:39;101314.22;;;12.44;51.67
21988;BME280;11158;53.404;-1.510;2023-05-16T03:33:24;101312.13;;;12.63;51.47
21988;BME280;11158;53.404;-1.510;2023-05-16T03:36:09;101307.75;;;12.93;50.38
21988;BME280;11158;53.404;-1.510;2023-05-16T03:38:53;101307.34;;;12.73;50.70
21988;BME280;11158;53.404;-1.510;2023-05-16T03:41:37;101303.75;;;12.26;52.11
21988;BME280;11158;53.404;-1.510;2023-05-16T03:44:22;101309.63;;;12.22;52.54
21988;BME280;11158;53.404;-1.510;2023-05-16T03:47:06;101310.06;;;12.42;51.78
21988;BME280;11158;53.404;-1.510;2023-05-16T03:49:51;101301.94;;;12.58;51.43
21988;BME280;11158;53.404;-1.510;2023-05-16T03:52:36;101311.31;;;12.54;51.28
21988;BME280;11158;53.404;-1.510;2023-05-16T03:55:21;101308.59;;;12.93;50.29
21988;BME280;11158;53.404;-1.510;2023-05-16T03:58:05;101300.81;;;12.98;49.94
21988;BME280;11158;53.404;-1.510;2023-05-16T04:00:50;101305.69;;;12.72;50.59
21988;BME280;11158;53.404;-1.510;2023-05-16T04:03:34;101309.59;;;12.61;50.89
21988;BME280;11158;53.404;-1.510;2023-05-16T04:06:19;101312.13;;;12.23;51.76
21988;BME280;11158;53.404;-1.510;2023-05-16T04:09:04;101315.19;;;12.12;52.20
21988;BME280;11158;53.404;-1.510;2023-05-16T04:11:49;101307.75;;;12.30;51.94
21988;BME280;11158;53.404;-1.510;2023-05-16T04:14:33;101310.44;;;12.62;51.42
21988;BME280;11158;53.404;-1.510;2023-05-16T04:17:18;101318.81;;;12.67;50.81
21988;BME280;11158;53.404;-1.510;2023-05-16T04:20:02;101325.69;;;12.69;50.11
21988;BME280;11158;53.404;-1.510;2023-05-16T04:22:47;101322.41;;;12.51;51.09
21988;BME280;11158;53.404;-1.510;2023-05-16T04:25:32;101321.09;;;12.47;51.34
21988;BME280;11158;53.404;-1.510;2023-05-16T04:28:16;101326.75;;;12.04;52.06
21988;BME280;11158;53.404;-1.510;2023-05-16T04:31:01;101325.56;;;12.15;52.25
21988;BME280;11158;53.404;-1.510;2023-05-16T04:33:45;101329.81;;;12.41;51.74
21988;BME280;11158;53.404;-1.510;2023-05-16T04:36:29;101333.00;;;12.44;51.55
21988;BME280;11158;53.404;-1.510;2023-05-16T04:39:14;101328.00;;;12.72;50.65
21988;BME280;11158;53.404;-1.510;2023-05-16T04:41:59;101321.31;;;12.68;50.49
21988;BME280;11158;53.404;-1.510;2023-05-16T04:44:44;101321.38;;;12.60;50.61
21988;BME280;11158;53.404;-1.510;2023-05-16T04:47:30;101324.66;;;12.70;49.95
21988;BME280;11158;53.404;-1.510;2023-05-16T04:50:14;101326.38;;;12.63;50.53
21988;BME280;11158;53.404;-1.510;2023-05-16T04:52:58;101327.19;;;12.95;50.10
21988;BME280;11158;53.404;-1.510;2023-05-16T04:55:42;101322.16;;;13.46;48.77
21988;BME280;11158;53.404;-1.510;2023-05-16T04:58:26;101315.56;;;14.61;46.74
21988;BME280;11158;53.404;-1.510;2023-05-16T05:01:10;101314.72;;;15.18;44.47
21988;BME280;11158;53.404;-1.510;2023-05-16T05:03:55;101318.03;;;15.63;43.41
21988;BME280;11158;53.404;-1.510;2023-05-16T05:06:39;101313.69;;;16.25;42.02
21988;BME280;11158;53.404;-1.510;2023-05-16T05:09:23;101309.09;;;16.74;40.87
21988;BME280;11158;53.404;-1.510;2023-05-16T05:12:10;101310.22;;;16.80;40.43
21988;BME280;11158;53.404;-1.510;2023-05-16T05:14:54;101314.25;;;17.37;39.21
21988;BME280;11158;53.404;-1.510;2023-05-16T05:17:40;101302.00;;;17.88;38.12
21988;BME280;11158;53.404;-1.510;2023-05-16T05:20:24;101306.56;;;17.87;38.14
21988;BME280;11158;53.404;-1.510;2023-05-16T05:23:08;101314.47;;;17.75;37.68
21988;BME280;11158;53.404;-1.510;2023-05-16T05:25:52;101306.94;;;17.97;37.41
21988;BME280;11158;53.404;-1.510;2023-05-16T05:28:37;101317.75;;;18.04;37.54
21988;BME280;11158;53.404;-1.510;2023-05-16T05:31:21;101318.34;;;18.19;37.32
21988;BME280;11158;53.404;-1.510;2023-05-16T05:34:05;101319.28;;;19.29;35.11
21988;BME280;11158;53.404;-1.510;2023-05-16T05:36:49;101311.47;;;18.82;35.60
21988;BME280;11158;53.404;-1.510;2023-05-16T05:39:34;101322.28;;;19.45;34.54
21988;BME280;11158;53.404;-1.510;2023-05-16T05:42:18;101313.22;;;20.02;33.20
21988;BME280;11158;53.404;-1.510;2023-05-16T05:45:03;101314.09;;;20.39;32.53
21988;BME280;11158;53.404;-1.510;2023-05-16T05:47:47;101318.44;;;20.03;33.06
21988;BME280;11158;53.404;-1.510;2023-05-16T05:50:32;101319.28;;;21.20;31.45
21988;BME280;11158;53.404;-1.510;2023-05-16T05:53:16;101310.84;;;21.87;29.46
21988;BME280;11158;53.404;-1.510;2023-05-16T05:56:00;101322.94;;;21.91;29.79
21988;BME280;11158;53.404;-1.510;2023-05-16T05:58:44;101318.31;;;21.80;29.54
21988;BME280;11158;53.404;-1.510;2023-05-16T06:01:28;101323.88;;;22.32;29.12
21988;BME280;11158;53.404;-1.510;2023-05-16T06:04:12;101331.72;;;22.57;28.93
21988;BME280;11158;53.404;-1.510;2023-05-16T06:06:56;101327.28;;;23.08;27.72
21988;BME280;11158;53.404;-1.510;2023-05-16T06:09:41;101324.66;;;23.64;26.82
21988;BME280;11158;53.404;-1.510;2023-05-16T06:12:25;101325.69;;;24.58;25.77
21988;BME280;11158;53.404;-1.510;2023-05-16T06:15:10;101326.47;;;25.67;24.46
21988;BME280;11158;53.404;-1.510;2023-05-16T06:17:54;101330.72;;;24.66;25.08
21988;BME280;11158;53.404;-1.510;2023-05-16T06:20:38;101329.78;;;23.94;26.31
21988;BME280;11158;53.404;-1.510;2023-05-16T06:23:22;101332.53;;;24.82;24.58
21988;BME280;11158;53.404;-1.510;2023-05-16T06:26:06;101337.56;;;23.35;26.37
21988;BME280;11158;53.404;-1.510;2023-05-16T06:28:50;101335.66;;;21.43;28.94
21988;BME280;11158;53.404;-1.510;2023-05-16T06:31:34;101347.16;;;21.45;29.65
21988;BME280;11158;53.404;-1.510;2023-05-16T06:34:19;101338.28;;;21.73;28.60
21988;BME280;11158;53.404;-1.510;2023-05-16T06:37:10;101341.44;;;22.53;27.95
21988;BME280;11158;53.404;-1.510;2023-05-16T06:39:55;101332.09;;;23.35;27.06
21988;BME280;11158;53.404;-1.510;2023-05-16T06:42:39;101341.28;;;23.46;26.92
21988;BME280;11158;53.404;-1.510;2023-05-16T06:45:23;101337.34;;;24.97;24.80
21988;BME280;11158;53.404;-1.510;2023-05-16T06:48:07;101346.66;;;22.83;27.49
21988;BME280;11158;53.404;-1.510;2023-05-16T06:50:51;101346.91;;;23.56;26.19
21988;BME280;11158;53.404;-1.510;2023-05-16T06:53:35;101351.56;;;22.69;27.71
21988;BME280;11158;53.404;-1.510;2023-05-16T06:56:19;101348.63;;;23.45;26.86
21988;BME280;11158;53.404;-1.510;2023-05-16T06:59:04;101361.34;;;22.53;27.55
21988;BME280;11158;53.404;-1.510;2023-05-16T07:01:48;101356.28;;;21.51;28.56
21988;BME280;11158;53.404;-1.510;2023-05-16T07:04:32;101366.88;;;20.80;29.47
21988;BME280;11158;53.404;-1.510;2023-05-16T07:07:19;101373.38;;;21.40;29.00
21988;BME280;11158;53.404;-1.510;2023-05-16T07:10:03;101369.72;;;23.04;27.09
21988;BME280;11158;53.404;-1.510;2023-05-16T07:12:47;101361.09;;;24.09;24.72
21988;BME280;11158;53.404;-1.510;2023-05-16T07:15:31;101357.75;;;23.51;25.42
21988;BME280;11158;53.404;-1.510;2023-05-16T07:18:15;101369.16;;;22.90;26.09
21988;BME280;11158;53.404;-1.510;2023-05-16T07:20:59;101367.47;;;23.30;26.04
21988;BME280;11158;53.404;-1.510;2023-05-16T07:23:43;101354.81;;;22.66;26.01
21988;BME280;11158;53.404;-1.510;2023-05-16T07:26:27;101352.56;;;22.63;26.54
21988;BME280;11158;53.404;-1.510;2023-05-16T07:29:11;101358.06;;;22.16;26.74
21988;BME280;11158;53.404;-1.510;2023-05-16T07:31:55;101353.13;;;24.24;24.36
21988;BME280;11158;53.404;-1.510;2023-05-16T07:34:39;101344.56;;;24.37;23.73
21988;BME280;11158;53.404;-1.510;2023-05-16T07:37:23;101339.09;;;25.68;22.59
21988;BME280;11158;53.404;-1.510;2023-05-16T07:40:09;101339.47;;;28.05;19.25
21988;BME280;11158;53.404;-1.510;2023-05-16T07:42:57;101347.72;;;27.69;19.94
21988;BME280;11158;53.404;-1.510;2023-05-16T07:45:42;101358.97;;;22.57;25.34
21988;BME280;11158;53.404;-1.510;2023-05-16T07:48:27;101376.06;;;18.78;30.85
21988;BME280;11158;53.404;-1.510;2023-05-16T07:51:11;101376.44;;;18.75;32.45
21988;BME280;11158;53.404;-1.510;2023-05-16T07:53:55;101390.97;;;18.23;32.98
21988;BME280;11158;53.404;-1.510;2023-05-16T07:56:39;101381.09;;;16.95;35.21
21988;BME280;11158;53.404;-1.510;2023-05-16T07:59:24;101387.19;;;16.75;35.93
21988;BME280;11158;53.404;-1.510;2023-05-16T08:02:09;101387.97;;;16.63;36.52
21988;BME280;11158;53.404;-1.510;2023-05-16T08:04:53;101395.59;;;16.87;36.38
21988;BME280;11158;53.404;-1.510;2023-05-16T08:07:38;101392.16;;;17.13;36.30
21988;BME280;11158;53.404;-1.510;2023-05-16T08:10:22;101401.09;;;16.66;37.31
21988;BME280;11158;53.404;-1.510;2023-05-16T08:13:07;101398.97;;;17.03;37.26
21988;BME280;11158;53.404;-1.510;2023-05-16T08:15:51;101397.44;;;17.55;36.15
21988;BME280;11158;53.404;-1.510;2023-05-16T08:18:35;101390.09;;;16.74;37.96
21988;BME280;11158;53.404;-1.510;2023-05-16T08:21:19;101400.97;;;16.81;37.68
21988;BME280;11158;53.404;-1.510;2023-05-16T08:24:04;101398.06;;;17.77;36.40
21988;BME280;11158;53.404;-1.510;2023-05-16T08:26:49;101404.84;;;17.20;37.42
21988;BME280;11158;53.404;-1.510;2023-05-16T08:29:33;101393.31;;;16.84;37.96
21988;BME280;11158;53.404;-1.510;2023-05-16T08:32:17;101391.00;;;16.81;38.42
21988;BME280;11158;53.404;-1.510;2023-05-16T08:35:02;101386.09;;;17.05;38.16
21988;BME280;11158;53.404;-1.510;2023-05-16T08:37:46;101381.22;;;17.62;37.31
21988;BME280;11158;53.404;-1.510;2023-05-16T08:40:30;101380.84;;;16.90;37.97
21988;BME280;11158;53.404;-1.510;2023-05-16T08:43:14;101378.69;;;17.33;37.29
21988;BME280;11158;53.404;-1.510;2023-05-16T08:45:59;101382.81;;;16.68;38.66
21988;BME280;11158;53.404;-1.510;2023-05-16T08:48:44;101389.72;;;16.42;39.42
21988;BME280;11158;53.404;-1.510;2023-05-16T08:51:31;101393.75;;;16.94;38.92
21988;BME280;11158;53.404;-1.510;2023-05-16T08:54:19;101373.69;;;17.30;37.41
21988;BME280;11158;53.404;-1.510;2023-05-16T08:57:05;101390.25;;;17.07;37.92
21988;BME280;11158;53.404;-1.510;2023-05-16T08:59:50;101381.84;;;16.41;39.20
21988;BME280;11158;53.404;-1.510;2023-05-16T09:02:38;101372.84;;;17.23;37.65
21988;BME280;11158;53.404;-1.510;2023-05-16T09:05:23;101375.75;;;17.28;37.52
21988;BME280;11158;53.404;-1.510;2023-05-16T09:08:08;101368.31;;;17.37;37.34
21988;BME280;11158;53.404;-1.510;2023-05-16T09:10:52;101369.56;;;18.14;36.11
21988;BME280;11158;53.404;-1.510;2023-05-16T09:13:38;101366.91;;;17.88;36.27
21988;BME280;11158;53.404;-1.510;2023-05-16T09:16:21;101372.50;;;17.66;36.77
21988;BME280;11158;53.404;-1.510;2023-05-16T09:19:05;101377.66;;;17.61;36.73
21988;BME280;11158;53.404;-1.510;2023-05-16T09:21:49;101370.00;;;17.71;36.37
21988;BME280;11158;53.404;-1.510;2023-05-16T09:24:38;101372.69;;;18.11;36.83
21988;BME280;11158;53.404;-1.510;2023-05-16T09:27:22;101373.75;;;18.10;36.09
21988;BME280;11158;53.404;-1.510;2023-05-16T09:30:08;101366.44;;;17.57;37.73
21988;BME280;11158;53.404;-1.510;2023-05-16T09:32:53;101372.00;;;17.29;37.80
21988;BME280;11158;53.404;-1.510;2023-05-16T09:35:37;101363.72;;;17.37;37.60
21988;BME280;11158;53.404;-1.510;2023-05-16T09:38:23;101369.91;;;17.11;37.87
21988;BME280;11158;53.404;-1.510;2023-05-16T09:41:09;101367.47;;;17.56;37.31
21988;BME280;11158;53.404;-1.510;2023-05-16T09:43:54;101368.22;;;18.50;36.19
21988;BME280;11158;53.404;-1.510;2023-05-16T09:46:39;101360.50;;;19.37;34.88
21988;BME280;11158;53.404;-1.510;2023-05-16T09:49:23;101370.03;;;19.78;33.45
21988;BME280;11158;53.404;-1.510;2023-05-16T09:52:08;101366.69;;;19.44;33.74
21988;BME280;11158;53.404;-1.510;2023-05-16T09:54:53;101386.22;;;19.28;34.79
21988;BME280;11158;53.404;-1.510;2023-05-16T09:57:38;101387.03;;;18.18;36.57
21988;BME280;11158;53.404;-1.510;2023-05-16T10:00:30;101376.84;;;18.92;35.72
21988;BME280;11158;53.404;-1.510;2023-05-16T10:03:14;101373.72;;;18.89;36.01
21988;BME280;11158;53.404;-1.510;2023-05-16T10:05:58;101375.03;;;18.66;36.85
21988;BME280;11158;53.404;-1.510;2023-05-16T10:08:43;101380.97;;;18.30;37.62
21988;BME280;11158;53.404;-1.510;2023-05-16T10:11:28;101379.78;;;18.84;36.45
21988;BME280;11158;53.404;-1.510;2023-05-16T10:14:16;101373.53;;;18.83;36.78
21988;BME280;11158;53.404;-1.510;2023-05-16T10:17:02;101376.03;;;17.73;38.12
21988;BME280;11158;53.404;-1.510;2023-05-16T10:19:48;101379.94;;;17.44;37.78
21988;BME280;11158;53.404;-1.510;2023-05-16T10:22:34;101377.03;;;17.59;37.70
21988;BME280;11158;53.404;-1.510;2023-05-16T10:25:31;101379.94;;;18.31;36.67
21988;BME280;11158;53.404;-1.510;2023-05-16T10:28:17;101386.53;;;18.48;36.72
21988;BME280;11158;53.404;-1.510;2023-05-16T10:31:02;101387.16;;;18.50;36.52
21988;BME280;11158;53.404;-1.510;2023-05-16T10:33:46;101382.06;;;17.89;38.36
21988;BME280;11158;53.404;-1.510;2023-05-16T10:36:31;101389.09;;;18.23;37.89
21988;BME280;11158;53.404;-1.510;2023-05-16T10:39:16;101392.75;;;18.55;37.59
21988;BME280;11158;53.404;-1.510;2023-05-16T10:42:00;101383.22;;;18.46;37.16
21988;BME280;11158;53.404;-1.510;2023-05-16T10:44:44;101389.13;;;18.16;38.01
21988;BME280;11158;53.404;-1.510;2023-05-16T10:47:28;101394.13;;;18.13;37.83
21988;BME280;11158;53.404;-1.510;2023-05-16T10:50:29;101400.16;;;18.15;37.59
21988;BME280;11158;53.404;-1.510;2023-05-16T10:53:18;101393.03;;;18.34;37.50
21988;BME280;11158;53.404;-1.510;2023-05-16T10:58:47;101392.88;;;18.02;37.75
21988;BME280;11158;53.404;-1.510;2023-05-16T11:01:34;101391.59;;;17.45;38.68
21988;BME280;11158;53.404;-1.510;2023-05-16T11:04:19;101386.63;;;18.21;37.78
21988;BME280;11158;53.404;-1.510;2023-05-16T11:07:03;101387.66;;;17.80;38.73
21988;BME280;11158;53.404;-1.510;2023-05-16T11:10:03;101388.72;;;18.06;37.87
21988;BME280;11158;53.404;-1.510;2023-05-16T11:12:48;101380.75;;;18.38;37.40
21988;BME280;11158;53.404;-1.510;2023-05-16T11:15:33;101380.84;;;18.83;36.26
21988;BME280;11158;53.404;-1.510;2023-05-16T11:18:17;101379.22;;;19.45;33.96
21988;BME280;11158;53.404;-1.510;2023-05-16T11:21:05;101388.88;;;18.96;35.22
21988;BME280;11158;53.404;-1.510;2023-05-16T11:24:26;101378.44;;;19.38;34.75
21988;BME280;11158;53.404;-1.510;2023-05-16T11:27:12;101370.44;;;19.18;34.77
21988;BME280;11158;53.404;-1.510;2023-05-16T11:32:50;101379.31;;;20.14;33.82
21988;BME280;11158;53.404;-1.510;2023-05-16T11:35:34;101380.13;;;20.15;33.44
21988;BME280;11158;53.404;-1.510;2023-05-16T11:38:20;101384.00;;;20.44;33.12
21988;BME280;11158;53.404;-1.510;2023-05-16T11:41:05;101388.59;;;19.50;34.07
21988;BME280;11158;53.404;-1.510;2023-05-16T11:43:50;101381.38;;;19.94;33.85
21988;BME280;11158;53.404;-1.510;2023-05-16T11:46:34;101369.31;;;19.58;34.67
21988;BME280;11158;53.404;-1.510;2023-05-16T11:49:18;101357.59;;;20.14;33.35
21988;BME280;11158;53.404;-1.510;2023-05-16T11:52:03;101366.94;;;19.43;34.04
21988;BME280;11158;53.404;-1.510;2023-05-16T11:54:48;101382.91;;;19.19;35.18
21988;BME280;11158;53.404;-1.510;2023-05-16T11:57:33;101381.16;;;19.38;33.36
21988;BME280;11158;53.404;-1.510;2023-05-16T12:00:18;101377.19;;;19.02;34.19
21988;BME280;11158;53.404;-1.510;2023-05-16T12:03:03;101382.09;;;19.19;32.58
21988;BME280;11158;53.404;-1.510;2023-05-16T12:05:52;101374.59;;;19.21;33.46
21988;BME280;11158;53.404;-1.510;2023-05-16T12:08:36;101372.44;;;19.61;33.07
21988;BME280;11158;53.404;-1.510;2023-05-16T12:11:22;101378.03;;;19.35;34.40
21988;BME280;11158;53.404;-1.510;2023-05-16T12:14:09;101383.06;;;19.88;33.31
21988;BME280;11158;53.404;-1.510;2023-05-16T12:16:54;101397.25;;;19.58;33.94
21988;BME280;11158;53.404;-1.510;2023-05-16T12:19:38;101389.50;;;19.37;35.01
21988;BME280;11158;53.404;-1.510;2023-05-16T12:22:24;101385.44;;;19.53;34.67
21988;BME280;11158;53.404;-1.510;2023-05-16T12:28:13;101388.31;;;19.58;34.50
21988;BME280;11158;53.404;-1.510;2023-05-16T12:30:57;101388.34;;;20.26;33.30
21988;BME280;11158;53.404;-1.510;2023-05-16T12:33:43;101383.44;;;20.17;34.04
21988;BME280;11158;53.404;-1.510;2023-05-16T12:36:32;101373.22;;;20.74;33.33
21988;BME280;11158;53.404;-1.510;2023-05-16T12:39:17;101372.59;;;21.21;32.22
21988;BME280;11158;53.404;-1.510;2023-05-16T12:42:05;101367.28;;;21.56;31.33
21988;BME280;11158;53.404;-1.510;2023-05-16T12:44:54;101380.06;;;20.95;32.16
21988;BME280;11158;53.404;-1.510;2023-05-16T12:47:39;101370.13;;;21.19;32.02
21988;BME280;11158;53.404;-1.510;2023-05-16T12:50:25;101368.50;;;21.84;30.92
21988;BME280;11158;53.404;-1.510;2023-05-16T12:53:11;101386.25;;;20.84;32.23
21988;BME280;11158;53.404;-1.510;2023-05-16T12:55:56;101372.03;;;20.08;33.93
21988;BME280;11158;53.404;-1.510;2023-05-16T12:58:41;101376.31;;;19.72;34.68
21988;BME280;11158;53.404;-1.510;2023-05-16T13:01:25;101374.69;;;19.71;35.61
21988;BME280;11158;53.404;-1.510;2023-05-16T13:04:09;101364.94;;;19.88;34.66
21988;BME280;11158;53.404;-1.510;2023-05-16T13:06:58;101375.38;;;20.10;34.32
21988;BME280;11158;53.404;-1.510;2023-05-16T13:09:42;101366.25;;;20.97;32.70
21988;BME280;11158;53.404;-1.510;2023-05-16T13:12:27;101383.25;;;20.74;32.81
21988;BME280;11158;53.404;-1.510;2023-05-16T13:15:12;101366.59;;;21.00;32.41
21988;BME280;11158;53.404;-1.510;2023-05-16T13:17:56;101372.91;;;20.45;33.18
21988;BME280;11158;53.404;-1.510;2023-05-16T13:20:40;101377.88;;;20.85;32.58
21988;BME280;11158;53.404;-1.510;2023-05-16T13:23:24;101369.63;;;20.00;33.90
21988;BME280;11158;53.404;-1.510;2023-05-16T13:26:09;101372.47;;;19.86;34.19
21988;BME280;11158;53.404;-1.510;2023-05-16T13:28:53;101365.88;;;20.19;34.16
21988;BME280;11158;53.404;-1.510;2023-05-16T13:31:37;101366.03;;;20.43;35.06
21988;BME280;11158;53.404;-1.510;2023-05-16T13:34:21;101349.38;;;21.06;33.13
21988;BME280;11158;53.404;-1.510;2023-05-16T13:37:05;101355.63;;;21.07;33.01
21988;BME280;11158;53.404;-1.510;2023-05-16T13:39:49;101356.66;;;20.94;32.39
21988;BME280;11158;53.404;-1.510;2023-05-16T13:42:33;101365.34;;;21.03;32.75
21988;BME280;11158;53.404;-1.510;2023-05-16T13:45:17;101378.41;;;20.94;31.42
21988;BME280;11158;53.404;-1.510;2023-05-16T13:48:01;101362.38;;;21.04;31.84
21988;BME280;11158;53.404;-1.510;2023-05-16T13:50:45;101361.75;;;22.22;29.77
21988;BME280;11158;53.404;-1.510;2023-05-16T13:53:29;101350.03;;;21.86;30.94
21988;BME280;11158;53.404;-1.510;2023-05-16T13:56:13;101374.50;;;21.32;30.55
21988;BME280;11158;53.404;-1.510;2023-05-16T13:58:58;101366.38;;;20.71;31.05
21988;BME280;11158;53.404;-1.510;2023-05-16T14:01:42;101356.53;;;20.52;31.36
21988;BME280;11158;53.404;-1.510;2023-05-16T14:04:27;101361.16;;;19.90;33.35
21988;BME280;11158;53.404;-1.510;2023-05-16T14:07:11;101352.13;;;19.96;33.53
21988;BME280;11158;53.404;-1.510;2023-05-16T14:09:54;101362.41;;;20.86;33.10
21988;BME280;11158;53.404;-1.510;2023-05-16T14:12:39;101355.50;;;20.71;31.34
21988;BME280;11158;53.404;-1.510;2023-05-16T14:15:23;101350.72;;;20.48;30.28
21988;BME280;11158;53.404;-1.510;2023-05-16T14:18:07;101355.78;;;20.63;30.32
21988;BME280;11158;53.404;-1.510;2023-05-16T14:20:52;101349.56;;;20.93;30.70
21988;BME280;11158;53.404;-1.510;2023-05-16T14:23:39;101340.34;;;22.02;29.47
21988;BME280;11158;53.404;-1.510;2023-05-16T14:26:23;101345.63;;;22.20;29.17
21988;BME280;11158;53.404;-1.510;2023-05-16T14:29:08;101342.41;;;23.16;28.56